Share

Axtell, KS

Brenner (KFNB) Elev 984 ft | 40.08 °N, 95.59 °W | Change Station

Current weather conditions updated 28 minutes ago

Clear
Clear
50 °F
Feels Like 50 °F
N
9
Wind Variable Wind from SSE
Sunrise 6:41 AM
Sunset 8:07 PM
Moon Waning Gibbous

Today is forecast to be Much Warmer than yesterday.

Pressure 30.14 in
Visibility 10.0 miles
Clouds Clear
Dew Point 41 °F
Humidity 71%
Rainfall 0.00 in
Snow Depth Not available.
UV 0 out of 16
Pollen 10.20 out of 12
Air Quality Not available.
Flu Activity No Activity
METAR KFNB 190553Z AUTO 15008KT 10SM CLR 10/05 A3014 RMK AO2 SLP204 T01000050 10194 20100 402061017 51002

More Conditions Fewer Conditions

Pressure 30.14 in
Visibility 10.0 miles
Clouds Clear
Dew Point 41 °F
Humidity 71%
Rainfall 0.00 in
Snow Depth Not available.
UV 0 out of 16
Pollen 10.20 out of 12
Air Quality Not available.
Flu Activity No Activity
METAR KFNB 190553Z AUTO 15008KT 10SM CLR 10/05 A3014 RMK AO2 SLP204 T01000050 10194 20100 402061017 51002

More Conditions Fewer Conditions

10-Day Weather Forecast

Almanac

Astronomy

Apr. 19, 2014 Rise Set
Actual Time 6:41 AM CDT 8:07 PM CDT
Civil Twilight 6:13 AM CDT 8:35 PM CDT
Nautical Twilight 5:39 AM CDT 9:09 PM CDT
Astronomical Twilight 5:03 AM CDT 9:45 PM CDT
Moon No Moon Rise 10:01 AM CDT
Length of Visible Light 14h 22m
Length of Day
13h 26m
Tomorrow will be 2m 27s longer.
Waning Gibbous, 82% of the Moon is Illuminated
Today
Waning Gibbous
Apr 22
Last Quarter
Apr 29
New
May 6
First Quarter
May 14
Full

Today's Extremes

State Highs State Lows

Community

  • Sunset Silhouettes
    Sunset Silhouettes
  • FL sunset Perico Isle
    FL sunset Perico Isle
  • Cloudy spring view
    Cloudy spring view
  • Old barn
    Old barn
  • What's for Lunch?
    What's for Lunch?

WunderPhotos

Upload Photos

1,702,653 photos uploaded!

WunderBlogs® & News

Nearby

Snow Depth

Station Depth Elevation
No new snow has been reported.

Coastal Water Temperatures

Place Temperature
No Stations Reporting

Earthquake Activity

City Distance Mag. Time & Date
No recent earthquake activity has been reported nearby.
Minimum magnitude displayed is 2.5.

Nearby Weather Stations

Station Location Temp. Dew Point Humidity Wind Precip. Elev Updated Type
MesoWest AXTELL , Axtell, KS 51 °F - - North  at  - 0.00 in / hr 1337 ft 11:35 PM CDT MADIS
MesoWest CENTRALIA LAKE , Centralia, KS 54 °F 43 °F 66% SSE  at  11 mph 0.00 in / hr 1302 ft 12:00 AM CDT MADIS
MesoWest WINFRD , Frankfort, KS 51 °F - - North  at  - 0.00 in / hr 1174 ft 12:00 AM CDT MADIS
MesoWest LILLIS , Vermillion, KS 51 °F - - North  at  - 0.00 in / hr 1252 ft 12:00 AM CDT MADIS
MesoWest SABTHA , Sabetha, KS 54 °F - - North  at  - 0.00 in / hr 1312 ft 10:50 PM CDT MADIS

Show More Stations Show Fewer Stations

What do you think?

We're not finished. Please let us know what you like, what you don't like, and what you are still missing.